sensor_id;sensor_type;location;lat;lon;timestamp;P1;durP1;ratioP1;P2;durP2;ratioP2
11731;SDS011;5922;53.734;10.258;2023-04-20T00:00:38;4.87;;;1.90;;
11731;SDS011;5922;53.734;10.258;2023-04-20T00:03:07;3.47;;;1.67;;
11731;SDS011;5922;53.734;10.258;2023-04-20T00:05:34;3.20;;;1.83;;
11731;SDS011;5922;53.734;10.258;2023-04-20T00:08:01;2.97;;;1.43;;
11731;SDS011;5922;53.734;10.258;2023-04-20T00:10:28;3.77;;;2.10;;
11731;SDS011;5922;53.734;10.258;2023-04-20T00:12:56;2.50;;;1.27;;
11731;SDS011;5922;53.734;10.258;2023-04-20T00:15:23;5.70;;;2.07;;
11731;SDS011;5922;53.734;10.258;2023-04-20T00:17:52;7.43;;;1.70;;
11731;SDS011;5922;53.734;10.258;2023-04-20T00:20:19;4.83;;;1.90;;
11731;SDS011;5922;53.734;10.258;2023-04-20T00:22:46;7.20;;;1.80;;
11731;SDS011;5922;53.734;10.258;2023-04-20T00:25:13;7.17;;;1.83;;
11731;SDS011;5922;53.734;10.258;2023-04-20T00:27:40;5.33;;;2.27;;
11731;SDS011;5922;53.734;10.258;2023-04-20T00:30:08;4.77;;;1.70;;
11731;SDS011;5922;53.734;10.258;2023-04-20T00:32:36;2.90;;;1.77;;
11731;SDS011;5922;53.734;10.258;2023-04-20T00:35:05;2.97;;;1.80;;
11731;SDS011;5922;53.734;10.258;2023-04-20T00:37:32;3.27;;;1.63;;
11731;SDS011;5922;53.734;10.258;2023-04-20T00:39:59;2.47;;;2.10;;
11731;SDS011;5922;53.734;10.258;2023-04-20T00:42:28;5.83;;;2.10;;
11731;SDS011;5922;53.734;10.258;2023-04-20T00:44:55;4.00;;;2.20;;
11731;SDS011;5922;53.734;10.258;2023-04-20T00:47:22;3.00;;;1.93;;
11731;SDS011;5922;53.734;10.258;2023-04-20T00:49:50;5.43;;;2.10;;
11731;SDS011;5922;53.734;10.258;2023-04-20T00:52:19;5.10;;;2.27;;
11731;SDS011;5922;53.734;10.258;2023-04-20T00:54:46;3.77;;;2.27;;
11731;SDS011;5922;53.734;10.258;2023-04-20T00:57:14;2.90;;;1.70;;
11731;SDS011;5922;53.734;10.258;2023-04-20T00:59:46;4.83;;;2.53;;
11731;SDS011;5922;53.734;10.258;2023-04-20T01:02:14;3.27;;;2.07;;
11731;SDS011;5922;53.734;10.258;2023-04-20T01:04:42;6.00;;;2.10;;
11731;SDS011;5922;53.734;10.258;2023-04-20T01:07:09;6.40;;;2.20;;
11731;SDS011;5922;53.734;10.258;2023-04-20T01:09:38;6.10;;;2.40;;
11731;SDS011;5922;53.734;10.258;2023-04-20T01:12:08;5.70;;;2.40;;
11731;SDS011;5922;53.734;10.258;2023-04-20T01:14:35;3.87;;;1.53;;
11731;SDS011;5922;53.734;10.258;2023-04-20T01:17:02;3.83;;;2.63;;
11731;SDS011;5922;53.734;10.258;2023-04-20T01:19:30;4.33;;;2.10;;
11731;SDS011;5922;53.734;10.258;2023-04-20T01:21:57;5.70;;;2.47;;
11731;SDS011;5922;53.734;10.258;2023-04-20T01:24:26;6.37;;;2.30;;
11731;SDS011;5922;53.734;10.258;2023-04-20T01:26:53;5.80;;;2.60;;
11731;SDS011;5922;53.734;10.258;2023-04-20T01:29:21;4.50;;;2.37;;
11731;SDS011;5922;53.734;10.258;2023-04-20T01:31:48;6.20;;;2.63;;
11731;SDS011;5922;53.734;10.258;2023-04-20T01:34:16;3.73;;;2.37;;
11731;SDS011;5922;53.734;10.258;2023-04-20T01:36:43;6.43;;;2.07;;
11731;SDS011;5922;53.734;10.258;2023-04-20T01:39:10;5.90;;;2.63;;
11731;SDS011;5922;53.734;10.258;2023-04-20T01:41:39;5.13;;;2.20;;
11731;SDS011;5922;53.734;10.258;2023-04-20T01:44:06;4.80;;;2.30;;
11731;SDS011;5922;53.734;10.258;2023-04-20T01:46:35;4.37;;;2.20;;
11731;SDS011;5922;53.734;10.258;2023-04-20T01:49:03;5.97;;;2.33;;
11731;SDS011;5922;53.734;10.258;2023-04-20T01:51:30;7.77;;;2.37;;
11731;SDS011;5922;53.734;10.258;2023-04-20T01:53:58;5.57;;;2.37;;
11731;SDS011;5922;53.734;10.258;2023-04-20T01:56:25;3.80;;;2.70;;
11731;SDS011;5922;53.734;10.258;2023-04-20T01:58:54;8.00;;;2.50;;
11731;SDS011;5922;53.734;10.258;2023-04-20T02:01:21;3.37;;;2.17;;
11731;SDS011;5922;53.734;10.258;2023-04-20T02:03:48;8.63;;;2.87;;
11731;SDS011;5922;53.734;10.258;2023-04-20T02:06:15;5.83;;;2.73;;
11731;SDS011;5922;53.734;10.258;2023-04-20T02:08:43;5.73;;;2.60;;
11731;SDS011;5922;53.734;10.258;2023-04-20T02:11:10;4.70;;;2.33;;
11731;SDS011;5922;53.734;10.258;2023-04-20T02:13:37;11.10;;;2.63;;
11731;SDS011;5922;53.734;10.258;2023-04-20T02:16:06;4.60;;;2.90;;
11731;SDS011;5922;53.734;10.258;2023-04-20T02:18:33;7.13;;;2.70;;
11731;SDS011;5922;53.734;10.258;2023-04-20T02:21:01;5.97;;;2.70;;
11731;SDS011;5922;53.734;10.258;2023-04-20T02:23:28;6.93;;;3.20;;
11731;SDS011;5922;53.734;10.258;2023-04-20T02:25:55;6.47;;;2.43;;
11731;SDS011;5922;53.734;10.258;2023-04-20T02:28:23;8.80;;;2.90;;
11731;SDS011;5922;53.734;10.258;2023-04-20T02:30:50;9.10;;;2.67;;
11731;SDS011;5922;53.734;10.258;2023-04-20T02:33:19;6.37;;;2.60;;
11731;SDS011;5922;53.734;10.258;2023-04-20T02:35:47;5.70;;;3.13;;
11731;SDS011;5922;53.734;10.258;2023-04-20T02:38:18;5.33;;;2.77;;
11731;SDS011;5922;53.734;10.258;2023-04-20T02:40:48;5.30;;;2.60;;
11731;SDS011;5922;53.734;10.258;2023-04-20T02:43:23;4.90;;;2.97;;
11731;SDS011;5922;53.734;10.258;2023-04-20T02:45:50;7.23;;;3.10;;
11731;SDS011;5922;53.734;10.258;2023-04-20T02:48:20;4.70;;;2.83;;
11731;SDS011;5922;53.734;10.258;2023-04-20T02:50:48;8.07;;;3.33;;
11731;SDS011;5922;53.734;10.258;2023-04-20T02:53:15;9.27;;;2.97;;
11731;SDS011;5922;53.734;10.258;2023-04-20T02:55:45;6.57;;;2.60;;
11731;SDS011;5922;53.734;10.258;2023-04-20T02:58:12;6.40;;;2.73;;
11731;SDS011;5922;53.734;10.258;2023-04-20T03:00:44;5.47;;;2.90;;
11731;SDS011;5922;53.734;10.258;2023-04-20T03:03:12;6.27;;;2.67;;
11731;SDS011;5922;53.734;10.258;2023-04-20T03:05:42;5.30;;;2.60;;
11731;SDS011;5922;53.734;10.258;2023-04-20T03:08:09;6.00;;;2.70;;
11731;SDS011;5922;53.734;10.258;2023-04-20T03:10:38;7.40;;;2.63;;
11731;SDS011;5922;53.734;10.258;2023-04-20T03:13:05;8.83;;;3.07;;
11731;SDS011;5922;53.734;10.258;2023-04-20T03:15:33;5.37;;;2.73;;
11731;SDS011;5922;53.734;10.258;2023-04-20T03:18:00;5.37;;;2.50;;
11731;SDS011;5922;53.734;10.258;2023-04-20T03:20:28;6.23;;;2.77;;
11731;SDS011;5922;53.734;10.258;2023-04-20T03:23:00;8.10;;;3.10;;
11731;SDS011;5922;53.734;10.258;2023-04-20T03:25:27;7.33;;;3.27;;
11731;SDS011;5922;53.734;10.258;2023-04-20T03:27:55;7.03;;;2.87;;
11731;SDS011;5922;53.734;10.258;2023-04-20T03:30:22;7.67;;;2.73;;
11731;SDS011;5922;53.734;10.258;2023-04-20T03:32:50;8.33;;;3.50;;
11731;SDS011;5922;53.734;10.258;2023-04-20T03:35:17;9.27;;;3.17;;
11731;SDS011;5922;53.734;10.258;2023-04-20T03:37:45;6.63;;;2.80;;
11731;SDS011;5922;53.734;10.258;2023-04-20T03:40:14;10.87;;;3.50;;
11731;SDS011;5922;53.734;10.258;2023-04-20T03:42:41;7.37;;;2.80;;
11731;SDS011;5922;53.734;10.258;2023-04-20T03:45:09;6.87;;;3.13;;
11731;SDS011;5922;53.734;10.258;2023-04-20T03:47:39;11.77;;;3.33;;
11731;SDS011;5922;53.734;10.258;2023-04-20T03:50:07;8.37;;;2.77;;
11731;SDS011;5922;53.734;10.258;2023-04-20T03:52:37;9.57;;;3.50;;
11731;SDS011;5922;53.734;10.258;2023-04-20T03:58:04;7.93;;;3.17;;
11731;SDS011;5922;53.734;10.258;2023-04-20T04:00:45;7.83;;;3.57;;
11731;SDS011;5922;53.734;10.258;2023-04-20T04:03:12;7.07;;;3.10;;
11731;SDS011;5922;53.734;10.258;2023-04-20T04:05:42;9.17;;;3.70;;
11731;SDS011;5922;53.734;10.258;2023-04-20T04:08:09;7.57;;;3.83;;
11731;SDS011;5922;53.734;10.258;2023-04-20T04:10:37;7.77;;;3.60;;
11731;SDS011;5922;53.734;10.258;2023-04-20T04:13:19;4.67;;;3.10;;
11731;SDS011;5922;53.734;10.258;2023-04-20T04:15:46;8.20;;;3.67;;
11731;SDS011;5922;53.734;10.258;2023-04-20T04:18:14;6.37;;;3.00;;
11731;SDS011;5922;53.734;10.258;2023-04-20T04:20:41;9.30;;;4.07;;
11731;SDS011;5922;53.734;10.258;2023-04-20T04:23:09;7.33;;;3.57;;
11731;SDS011;5922;53.734;10.258;2023-04-20T04:25:38;5.43;;;3.00;;
11731;SDS011;5922;53.734;10.258;2023-04-20T04:28:06;9.10;;;3.37;;
11731;SDS011;5922;53.734;10.258;2023-04-20T04:30:35;10.57;;;3.43;;
11731;SDS011;5922;53.734;10.258;2023-04-20T04:33:20;12.13;;;3.70;;
11731;SDS011;5922;53.734;10.258;2023-04-20T04:39:12;8.33;;;3.60;;
11731;SDS011;5922;53.734;10.258;2023-04-20T04:42:12;8.50;;;4.03;;
11731;SDS011;5922;53.734;10.258;2023-04-20T04:44:59;11.30;;;3.70;;
11731;SDS011;5922;53.734;10.258;2023-04-20T04:47:30;10.27;;;3.40;;
11731;SDS011;5922;53.734;10.258;2023-04-20T04:49:59;8.77;;;3.73;;
11731;SDS011;5922;53.734;10.258;2023-04-20T04:52:29;9.03;;;3.63;;
11731;SDS011;5922;53.734;10.258;2023-04-20T04:54:57;8.30;;;3.60;;
11731;SDS011;5922;53.734;10.258;2023-04-20T04:57:25;7.80;;;3.37;;
11731;SDS011;5922;53.734;10.258;2023-04-20T04:59:54;9.53;;;3.63;;
11731;SDS011;5922;53.734;10.258;2023-04-20T05:02:21;6.47;;;3.70;;
11731;SDS011;5922;53.734;10.258;2023-04-20T05:04:53;11.53;;;4.03;;
11731;SDS011;5922;53.734;10.258;2023-04-20T05:07:21;8.17;;;3.47;;
11731;SDS011;5922;53.734;10.258;2023-04-20T05:09:57;8.80;;;3.50;;
11731;SDS011;5922;53.734;10.258;2023-04-20T05:12:29;7.13;;;3.80;;
11731;SDS011;5922;53.734;10.258;2023-04-20T05:14:57;9.57;;;3.70;;
11731;SDS011;5922;53.734;10.258;2023-04-20T05:17:24;6.93;;;3.70;;
11731;SDS011;5922;53.734;10.258;2023-04-20T05:19:56;11.77;;;3.87;;
11731;SDS011;5922;53.734;10.258;2023-04-20T05:22:23;9.43;;;4.17;;
11731;SDS011;5922;53.734;10.258;2023-04-20T05:24:51;11.17;;;3.73;;
11731;SDS011;5922;53.734;10.258;2023-04-20T05:27:20;10.50;;;4.27;;
11731;SDS011;5922;53.734;10.258;2023-04-20T05:29:50;8.57;;;3.83;;
11731;SDS011;5922;53.734;10.258;2023-04-20T05:32:17;9.90;;;4.07;;
11731;SDS011;5922;53.734;10.258;2023-04-20T05:34:45;8.50;;;4.07;;
11731;SDS011;5922;53.734;10.258;2023-04-20T05:37:17;7.77;;;3.90;;
11731;SDS011;5922;53.734;10.258;2023-04-20T05:39:53;9.00;;;4.10;;
11731;SDS011;5922;53.734;10.258;2023-04-20T05:42:20;11.43;;;4.63;;
11731;SDS011;5922;53.734;10.258;2023-04-20T05:44:48;15.77;;;4.53;;
11731;SDS011;5922;53.734;10.258;2023-04-20T05:47:15;7.13;;;3.50;;
11731;SDS011;5922;53.734;10.258;2023-04-20T05:49:43;8.00;;;4.00;;
11731;SDS011;5922;53.734;10.258;2023-04-20T05:52:13;8.47;;;4.03;;
11731;SDS011;5922;53.734;10.258;2023-04-20T05:54:47;9.00;;;3.70;;
11731;SDS011;5922;53.734;10.258;2023-04-20T05:57:23;12.93;;;4.00;;
11731;SDS011;5922;53.734;10.258;2023-04-20T05:59:51;9.20;;;3.97;;
11731;SDS011;5922;53.734;10.258;2023-04-20T06:02:23;10.13;;;4.10;;
11731;SDS011;5922;53.734;10.258;2023-04-20T06:04:58;8.93;;;3.77;;
11731;SDS011;5922;53.734;10.258;2023-04-20T06:07:37;8.47;;;3.93;;
11731;SDS011;5922;53.734;10.258;2023-04-20T06:10:22;11.60;;;4.37;;
11731;SDS011;5922;53.734;10.258;2023-04-20T06:12:54;10.60;;;4.20;;
11731;SDS011;5922;53.734;10.258;2023-04-20T06:15:44;9.53;;;4.03;;
11731;SDS011;5922;53.734;10.258;2023-04-20T06:18:12;12.93;;;4.23;;
11731;SDS011;5922;53.734;10.258;2023-04-20T06:23:09;7.57;;;4.27;;
11731;SDS011;5922;53.734;10.258;2023-04-20T06:24:24;10.27;;;4.27;;
11731;SDS011;5922;53.734;10.258;2023-04-20T06:29:37;10.87;;;4.60;;
11731;SDS011;5922;53.734;10.258;2023-04-20T06:32:05;10.60;;;4.30;;
11731;SDS011;5922;53.734;10.258;2023-04-20T06:34:33;10.83;;;4.10;;
11731;SDS011;5922;53.734;10.258;2023-04-20T06:37:00;8.97;;;4.73;;
11731;SDS011;5922;53.734;10.258;2023-04-20T06:39:27;8.77;;;4.40;;
11731;SDS011;5922;53.734;10.258;2023-04-20T06:41:57;9.80;;;4.40;;
11731;SDS011;5922;53.734;10.258;2023-04-20T06:44:28;12.67;;;4.33;;
11731;SDS011;5922;53.734;10.258;2023-04-20T06:46:56;10.87;;;4.27;;
11731;SDS011;5922;53.734;10.258;2023-04-20T06:49:25;7.27;;;3.50;;
11731;SDS011;5922;53.734;10.258;2023-04-20T06:52:06;7.80;;;4.00;;
11731;SDS011;5922;53.734;10.258;2023-04-20T06:54:33;9.63;;;4.53;;
11731;SDS011;5922;53.734;10.258;2023-04-20T06:57:02;9.53;;;4.20;;
11731;SDS011;5922;53.734;10.258;2023-04-20T06:59:33;9.67;;;4.30;;
11731;SDS011;5922;53.734;10.258;2023-04-20T07:02:03;9.03;;;3.90;;
11731;SDS011;5922;53.734;10.258;2023-04-20T07:04:30;14.30;;;4.83;;
11731;SDS011;5922;53.734;10.258;2023-04-20T07:06:58;11.40;;;4.13;;
11731;SDS011;5922;53.734;10.258;2023-04-20T07:09:25;11.43;;;4.07;;
11731;SDS011;5922;53.734;10.258;2023-04-20T07:11:55;7.70;;;4.03;;
11731;SDS011;5922;53.734;10.258;2023-04-20T07:14:25;11.40;;;4.47;;
11731;SDS011;5922;53.734;10.258;2023-04-20T07:16:57;8.20;;;3.37;;
11731;SDS011;5922;53.734;10.258;2023-04-20T07:19:25;6.40;;;3.70;;
11731;SDS011;5922;53.734;10.258;2023-04-20T07:21:56;12.50;;;4.53;;
11731;SDS011;5922;53.734;10.258;2023-04-20T07:24:24;9.03;;;3.87;;
11731;SDS011;5922;53.734;10.258;2023-04-20T07:26:55;8.17;;;3.97;;
11731;SDS011;5922;53.734;10.258;2023-04-20T07:29:24;9.57;;;4.40;;
11731;SDS011;5922;53.734;10.258;2023-04-20T07:31:52;10.03;;;4.37;;
11731;SDS011;5922;53.734;10.258;2023-04-20T07:34:19;8.33;;;3.93;;
11731;SDS011;5922;53.734;10.258;2023-04-20T07:36:52;13.63;;;4.73;;
11731;SDS011;5922;53.734;10.258;2023-04-20T07:39:19;12.83;;;4.40;;
11731;SDS011;5922;53.734;10.258;2023-04-20T07:41:47;13.90;;;4.43;;
11731;SDS011;5922;53.734;10.258;2023-04-20T07:44:14;10.97;;;4.13;;
11731;SDS011;5922;53.734;10.258;2023-04-20T07:46:43;13.67;;;4.30;;
11731;SDS011;5922;53.734;10.258;2023-04-20T07:49:11;11.73;;;4.10;;
11731;SDS011;5922;53.734;10.258;2023-04-20T07:51:38;8.23;;;4.03;;
11731;SDS011;5922;53.734;10.258;2023-04-20T07:54:06;10.20;;;4.17;;
11731;SDS011;5922;53.734;10.258;2023-04-20T07:56:33;8.47;;;4.00;;
11731;SDS011;5922;53.734;10.258;2023-04-20T07:59:00;13.30;;;4.30;;
11731;SDS011;5922;53.734;10.258;2023-04-20T08:01:28;8.00;;;4.23;;
11731;SDS011;5922;53.734;10.258;2023-04-20T08:03:57;10.47;;;4.33;;
11731;SDS011;5922;53.734;10.258;2023-04-20T08:06:24;15.13;;;4.53;;
11731;SDS011;5922;53.734;10.258;2023-04-20T08:08:52;9.60;;;4.13;;
11731;SDS011;5922;53.734;10.258;2023-04-20T08:11:20;12.63;;;4.57;;
11731;SDS011;5922;53.734;10.258;2023-04-20T08:13:51;13.93;;;4.33;;
11731;SDS011;5922;53.734;10.258;2023-04-20T08:16:18;10.40;;;4.43;;
11731;SDS011;5922;53.734;10.258;2023-04-20T08:18:49;12.70;;;4.50;;
11731;SDS011;5922;53.734;10.258;2023-04-20T08:21:18;8.73;;;4.33;;
11731;SDS011;5922;53.734;10.258;2023-04-20T08:23:47;10.20;;;4.23;;
11731;SDS011;5922;53.734;10.258;2023-04-20T08:26:15;13.07;;;4.73;;
11731;SDS011;5922;53.734;10.258;2023-04-20T08:28:42;10.97;;;4.67;;
11731;SDS011;5922;53.734;10.258;2023-04-20T08:31:10;9.83;;;3.90;;
11731;SDS011;5922;53.734;10.258;2023-04-20T08:33:40;9.50;;;4.30;;
11731;SDS011;5922;53.734;10.258;2023-04-20T08:36:07;8.33;;;4.33;;
11731;SDS011;5922;53.734;10.258;2023-04-20T08:38:37;10.10;;;4.37;;
11731;SDS011;5922;53.734;10.258;2023-04-20T08:41:04;11.20;;;4.83;;
11731;SDS011;5922;53.734;10.258;2023-04-20T08:43:31;8.30;;;4.30;;
11731;SDS011;5922;53.734;10.258;2023-04-20T08:46:00;9.63;;;4.33;;
11731;SDS011;5922;53.734;10.258;2023-04-20T08:48:28;13.17;;;4.40;;
11731;SDS011;5922;53.734;10.258;2023-04-20T08:50:59;8.23;;;4.40;;
11731;SDS011;5922;53.734;10.258;2023-04-20T08:53:27;11.73;;;4.50;;
11731;SDS011;5922;53.734;10.258;2023-04-20T08:55:57;11.13;;;4.40;;
11731;SDS011;5922;53.734;10.258;2023-04-20T08:58:28;8.47;;;3.90;;
11731;SDS011;5922;53.734;10.258;2023-04-20T09:00:55;11.60;;;4.50;;
11731;SDS011;5922;53.734;10.258;2023-04-20T09:03:30;9.97;;;4.27;;
11731;SDS011;5922;53.734;10.258;2023-04-20T09:05:58;15.13;;;5.00;;
11731;SDS011;5922;53.734;10.258;2023-04-20T09:08:32;10.17;;;4.17;;
11731;SDS011;5922;53.734;10.258;2023-04-20T09:11:01;10.13;;;4.37;;
11731;SDS011;5922;53.734;10.258;2023-04-20T09:13:28;13.90;;;4.50;;
11731;SDS011;5922;53.734;10.258;2023-04-20T09:15:56;11.43;;;4.73;;
11731;SDS011;5922;53.734;10.258;2023-04-20T09:18:23;10.10;;;5.67;;
11731;SDS011;5922;53.734;10.258;2023-04-20T09:20:51;13.97;;;4.97;;
11731;SDS011;5922;53.734;10.258;2023-04-20T09:23:19;10.73;;;5.33;;
11731;SDS011;5922;53.734;10.258;2023-04-20T09:25:49;8.93;;;4.87;;
11731;SDS011;5922;53.734;10.258;2023-04-20T09:28:19;11.53;;;5.30;;
11731;SDS011;5922;53.734;10.258;2023-04-20T09:30:49;8.77;;;4.73;;
11731;SDS011;5922;53.734;10.258;2023-04-20T09:33:17;13.67;;;4.57;;
11731;SDS011;5922;53.734;10.258;2023-04-20T09:35:44;8.93;;;5.20;;
11731;SDS011;5922;53.734;10.258;2023-04-20T09:38:14;10.83;;;5.10;;
11731;SDS011;5922;53.734;10.258;2023-04-20T09:40:51;12.93;;;5.00;;
11731;SDS011;5922;53.734;10.258;2023-04-20T09:43:21;11.03;;;4.70;;
11731;SDS011;5922;53.734;10.258;2023-04-20T09:45:50;8.53;;;4.73;;
11731;SDS011;5922;53.734;10.258;2023-04-20T09:48:18;9.83;;;5.00;;
11731;SDS011;5922;53.734;10.258;2023-04-20T09:50:46;6.63;;;3.93;;
11731;SDS011;5922;53.734;10.258;2023-04-20T09:53:14;14.57;;;5.07;;
11731;SDS011;5922;53.734;10.258;2023-04-20T09:55:44;11.13;;;4.80;;
11731;SDS011;5922;53.734;10.258;2023-04-20T09:58:11;11.03;;;5.20;;
11731;SDS011;5922;53.734;10.258;2023-04-20T10:00:42;14.83;;;6.10;;
11731;SDS011;5922;53.734;10.258;2023-04-20T10:03:09;9.27;;;5.10;;
11731;SDS011;5922;53.734;10.258;2023-04-20T10:05:37;13.13;;;5.40;;
11731;SDS011;5922;53.734;10.258;2023-04-20T10:08:05;12.73;;;5.20;;
11731;SDS011;5922;53.734;10.258;2023-04-20T10:10:41;12.57;;;5.30;;
11731;SDS011;5922;53.734;10.258;2023-04-20T10:13:09;12.47;;;5.17;;
11731;SDS011;5922;53.734;10.258;2023-04-20T10:15:36;13.53;;;6.23;;
11731;SDS011;5922;53.734;10.258;2023-04-20T10:18:18;12.47;;;5.50;;
11731;SDS011;5922;53.734;10.258;2023-04-20T10:20:50;15.90;;;5.80;;
11731;SDS011;5922;53.734;10.258;2023-04-20T10:23:18;13.53;;;5.50;;
11731;SDS011;5922;53.734;10.258;2023-04-20T10:25:54;11.60;;;5.77;;
11731;SDS011;5922;53.734;10.258;2023-04-20T10:28:22;10.00;;;4.97;;
11731;SDS011;5922;53.734;10.258;2023-04-20T10:30:49;13.30;;;5.67;;
11731;SDS011;5922;53.734;10.258;2023-04-20T10:33:21;10.90;;;5.20;;
11731;SDS011;5922;53.734;10.258;2023-04-20T10:39:12;10.97;;;4.83;;
11731;SDS011;5922;53.734;10.258;2023-04-20T10:42:29;9.13;;;5.20;;
11731;SDS011;5922;53.734;10.258;2023-04-20T10:44:48;16.33;;;5.77;;
11731;SDS011;5922;53.734;10.258;2023-04-20T10:47:15;9.23;;;4.87;;
11731;SDS011;5922;53.734;10.258;2023-04-20T11:05:21;10.60;;;5.90;;
11731;SDS011;5922;53.734;10.258;2023-04-20T11:11:20;12.93;;;5.80;;
11731;SDS011;5922;53.734;10.258;2023-04-20T11:13:49;16.87;;;6.50;;
11731;SDS011;5922;53.734;10.258;2023-04-20T11:16:17;14.00;;;5.80;;
11731;SDS011;5922;53.734;10.258;2023-04-20T11:18:48;15.37;;;6.13;;
11731;SDS011;5922;53.734;10.258;2023-04-20T11:30:20;14.87;;;7.33;;
11731;SDS011;5922;53.734;10.258;2023-04-20T11:32:52;14.03;;;6.67;;
11731;SDS011;5922;53.734;10.258;2023-04-20T11:35:19;17.73;;;7.27;;
11731;SDS011;5922;53.734;10.258;2023-04-20T11:37:48;12.53;;;6.33;;
11731;SDS011;5922;53.734;10.258;2023-04-20T11:40:43;11.47;;;5.57;;
11731;SDS011;5922;53.734;10.258;2023-04-20T11:43:41;16.20;;;6.20;;
11731;SDS011;5922;53.734;10.258;2023-04-20T11:58:36;13.30;;;6.10;;
11731;SDS011;5922;53.734;10.258;2023-04-20T12:01:17;15.97;;;6.70;;
11731;SDS011;5922;53.734;10.258;2023-04-20T12:03:45;16.20;;;7.20;;
11731;SDS011;5922;53.734;10.258;2023-04-20T12:06:12;16.70;;;6.00;;
11731;SDS011;5922;53.734;10.258;2023-04-20T12:15:09;14.53;;;6.33;;
11731;SDS011;5922;53.734;10.258;2023-04-20T12:21:35;12.47;;;7.73;;
11731;SDS011;5922;53.734;10.258;2023-04-20T12:24:47;13.33;;;5.90;;
11731;SDS011;5922;53.734;10.258;2023-04-20T12:27:21;15.87;;;7.43;;
11731;SDS011;5922;53.734;10.258;2023-04-20T12:30:07;14.47;;;6.83;;
11731;SDS011;5922;53.734;10.258;2023-04-20T12:41:33;12.60;;;6.43;;
11731;SDS011;5922;53.734;10.258;2023-04-20T12:47:07;9.90;;;6.50;;
11731;SDS011;5922;53.734;10.258;2023-04-20T12:49:48;16.93;;;6.70;;
11731;SDS011;5922;53.734;10.258;2023-04-20T12:58:16;10.97;;;7.13;;
11731;SDS011;5922;53.734;10.258;2023-04-20T13:00:44;15.23;;;7.30;;
11731;SDS011;5922;53.734;10.258;2023-04-20T13:03:13;17.00;;;7.20;;
11731;SDS011;5922;53.734;10.258;2023-04-20T13:05:50;13.97;;;7.60;;
11731;SDS011;5922;53.734;10.258;2023-04-20T13:08:17;12.77;;;7.13;;
11731;SDS011;5922;53.734;10.258;2023-04-20T13:11:15;11.67;;;6.87;;
11731;SDS011;5922;53.734;10.258;2023-04-20T13:14:32;18.70;;;8.33;;
11731;SDS011;5922;53.734;10.258;2023-04-20T13:17:22;11.63;;;7.93;;
11731;SDS011;5922;53.734;10.258;2023-04-20T13:23:09;13.70;;;7.23;;
11731;SDS011;5922;53.734;10.258;2023-04-20T13:25:39;16.57;;;8.70;;
11731;SDS011;5922;53.734;10.258;2023-04-20T13:28:10;19.73;;;8.47;;
11731;SDS011;5922;53.734;10.258;2023-04-20T13:31:37;15.20;;;7.90;;
11731;SDS011;5922;53.734;10.258;2023-04-20T13:37:27;13.10;;;7.47;;
11731;SDS011;5922;53.734;10.258;2023-04-20T13:40:13;15.70;;;8.07;;
11731;SDS011;5922;53.734;10.258;2023-04-20T13:42:40;13.67;;;7.60;;
11731;SDS011;5922;53.734;10.258;2023-04-20T13:45:29;13.13;;;7.10;;
11731;SDS011;5922;53.734;10.258;2023-04-20T13:48:44;18.30;;;8.23;;
11731;SDS011;5922;53.734;10.258;2023-04-20T13:51:21;13.20;;;7.27;;
11731;SDS011;5922;53.734;10.258;2023-04-20T13:57:06;14.97;;;7.27;;
11731;SDS011;5922;53.734;10.258;2023-04-20T14:00:47;16.13;;;7.13;;
11731;SDS011;5922;53.734;10.258;2023-04-20T14:03:04;14.60;;;7.73;;
11731;SDS011;5922;53.734;10.258;2023-04-20T14:05:45;16.37;;;8.33;;
11731;SDS011;5922;53.734;10.258;2023-04-20T14:08:22;21.07;;;8.60;;
11731;SDS011;5922;53.734;10.258;2023-04-20T14:10:57;13.27;;;8.20;;
11731;SDS011;5922;53.734;10.258;2023-04-20T14:13:37;16.63;;;7.63;;
11731;SDS011;5922;53.734;10.258;2023-04-20T14:16:18;12.83;;;7.23;;
11731;SDS011;5922;53.734;10.258;2023-04-20T14:18:50;14.93;;;7.40;;
11731;SDS011;5922;53.734;10.258;2023-04-20T14:21:17;15.53;;;7.40;;
11731;SDS011;5922;53.734;10.258;2023-04-20T14:24:01;18.20;;;7.50;;
11731;SDS011;5922;53.734;10.258;2023-04-20T14:26:38;18.60;;;7.60;;
11731;SDS011;5922;53.734;10.258;2023-04-20T14:31:53;11.80;;;6.53;;
11731;SDS011;5922;53.734;10.258;2023-04-20T14:34:20;14.30;;;7.00;;
11731;SDS011;5922;53.734;10.258;2023-04-20T14:36:47;15.03;;;7.17;;
11731;SDS011;5922;53.734;10.258;2023-04-20T14:39:14;14.00;;;6.90;;
11731;SDS011;5922;53.734;10.258;2023-04-20T14:41:42;12.03;;;6.77;;
11731;SDS011;5922;53.734;10.258;2023-04-20T14:44:09;13.80;;;7.03;;
11731;SDS011;5922;53.734;10.258;2023-04-20T14:46:45;14.57;;;7.47;;
11731;SDS011;5922;53.734;10.258;2023-04-20T14:49:20;14.90;;;7.43;;
11731;SDS011;5922;53.734;10.258;2023-04-20T14:51:51;12.73;;;7.17;;
11731;SDS011;5922;53.734;10.258;2023-04-20T14:54:23;14.97;;;6.93;;
11731;SDS011;5922;53.734;10.258;2023-04-20T14:56:55;10.70;;;6.60;;
11731;SDS011;5922;53.734;10.258;2023-04-20T14:59:22;16.00;;;7.53;;
11731;SDS011;5922;53.734;10.258;2023-04-20T15:01:51;18.20;;;8.13;;
11731;SDS011;5922;53.734;10.258;2023-04-20T15:04:19;13.63;;;7.50;;
11731;SDS011;5922;53.734;10.258;2023-04-20T15:06:56;13.30;;;6.90;;
11731;SDS011;5922;53.734;10.258;2023-04-20T15:09:23;12.20;;;6.63;;
11731;SDS011;5922;53.734;10.258;2023-04-20T15:11:50;12.93;;;7.10;;
11731;SDS011;5922;53.734;10.258;2023-04-20T15:14:19;13.77;;;7.10;;
11731;SDS011;5922;53.734;10.258;2023-04-20T15:16:46;14.40;;;6.80;;
11731;SDS011;5922;53.734;10.258;2023-04-20T15:19:15;13.93;;;6.67;;
11731;SDS011;5922;53.734;10.258;2023-04-20T15:21:44;16.20;;;6.87;;
11731;SDS011;5922;53.734;10.258;2023-04-20T15:24:11;12.57;;;7.03;;
11731;SDS011;5922;53.734;10.258;2023-04-20T15:26:39;18.93;;;7.23;;
11731;SDS011;5922;53.734;10.258;2023-04-20T15:29:06;13.47;;;6.70;;
11731;SDS011;5922;53.734;10.258;2023-04-20T15:31:34;17.13;;;7.67;;
11731;SDS011;5922;53.734;10.258;2023-04-20T15:34:01;13.17;;;7.03;;
11731;SDS011;5922;53.734;10.258;2023-04-20T15:36:28;11.77;;;6.93;;
11731;SDS011;5922;53.734;10.258;2023-04-20T15:38:58;13.63;;;6.77;;
11731;SDS011;5922;53.734;10.258;2023-04-20T15:41:25;14.00;;;5.93;;
11731;SDS011;5922;53.734;10.258;2023-04-20T15:43:52;17.73;;;7.10;;
11731;SDS011;5922;53.734;10.258;2023-04-20T15:46:19;16.83;;;7.23;;
11731;SDS011;5922;53.734;10.258;2023-04-20T15:48:48;14.90;;;7.03;;
11731;SDS011;5922;53.734;10.258;2023-04-20T15:51:15;14.30;;;7.27;;
11731;SDS011;5922;53.734;10.258;2023-04-20T15:53:44;13.83;;;6.57;;
11731;SDS011;5922;53.734;10.258;2023-04-20T15:56:16;14.47;;;7.17;;
11731;SDS011;5922;53.734;10.258;2023-04-20T15:58:46;13.13;;;6.67;;
11731;SDS011;5922;53.734;10.258;2023-04-20T16:01:14;11.90;;;7.13;;
11731;SDS011;5922;53.734;10.258;2023-04-20T16:03:41;13.37;;;7.37;;
11731;SDS011;5922;53.734;10.258;2023-04-20T16:06:08;11.03;;;6.80;;
11731;SDS011;5922;53.734;10.258;2023-04-20T16:08:36;14.40;;;7.13;;
11731;SDS011;5922;53.734;10.258;2023-04-20T16:11:03;12.23;;;7.13;;
11731;SDS011;5922;53.734;10.258;2023-04-20T16:13:32;13.33;;;7.90;;
11731;SDS011;5922;53.734;10.258;2023-04-20T16:16:00;15.70;;;7.70;;
11731;SDS011;5922;53.734;10.258;2023-04-20T16:18:28;12.03;;;7.23;;
11731;SDS011;5922;53.734;10.258;2023-04-20T16:20:58;18.77;;;7.40;;
11731;SDS011;5922;53.734;10.258;2023-04-20T16:23:25;14.13;;;6.83;;
11731;SDS011;5922;53.734;10.258;2023-04-20T16:25:52;15.37;;;7.17;;
11731;SDS011;5922;53.734;10.258;2023-04-20T16:28:20;14.13;;;7.63;;
11731;SDS011;5922;53.734;10.258;2023-04-20T16:30:48;15.37;;;7.27;;
11731;SDS011;5922;53.734;10.258;2023-04-20T16:33:15;15.73;;;7.80;;
11731;SDS011;5922;53.734;10.258;2023-04-20T16:35:43;13.00;;;7.10;;